createdAt,value
2022-08-30T00:08:01.773Z,0.00
2022-08-30T00:19:03.916Z,0.00
2022-08-30T00:30:05.658Z,0.00
2022-08-30T00:41:07.388Z,0.00
2022-08-30T00:52:09.118Z,0.00
2022-08-30T01:03:10.860Z,0.00
2022-08-30T01:14:12.623Z,0.00
2022-08-30T01:25:14.380Z,0.00
2022-08-30T01:36:16.121Z,0.00
2022-08-30T01:47:17.863Z,0.00
2022-08-30T01:58:19.598Z,0.00
2022-08-30T02:09:21.332Z,0.00
2022-08-30T02:20:23.104Z,1.70
2022-08-30T02:31:24.861Z,0.00
2022-08-30T02:42:26.617Z,0.00
2022-08-30T02:53:28.364Z,0.00
2022-08-30T03:04:30.117Z,0.00
2022-08-30T03:15:31.871Z,2.25
2022-08-30T03:26:33.624Z,0.00
2022-08-30T03:37:35.377Z,0.00
2022-08-30T03:48:37.104Z,0.00
2022-08-30T03:59:38.850Z,0.00
2022-08-30T04:10:40.628Z,0.00
2022-08-30T04:21:42.996Z,0.00
2022-08-30T04:32:44.111Z,0.00
2022-08-30T04:43:49.836Z,0.00
2022-08-30T04:54:51.586Z,2.67
2022-08-30T05:05:53.325Z,0.00
2022-08-30T05:16:55.066Z,0.00
2022-08-30T05:27:56.829Z,0.00
2022-08-30T05:38:58.565Z,0.00
2022-08-30T05:50:00.296Z,0.00
2022-08-30T06:01:02.050Z,0.00
2022-08-30T06:12:03.779Z,0.00
2022-08-30T06:15:45.482Z,2.45
2022-08-30T06:19:27.252Z,3.74
2022-08-30T06:23:08.845Z,2.53
2022-08-30T06:34:10.586Z,0.00
2022-08-30T06:41:32.290Z,2.26
2022-08-30T06:48:56.307Z,1.70
2022-08-30T06:52:35.529Z,2.32
2022-08-30T06:56:17.133Z,2.37
2022-08-30T06:59:58.823Z,2.32
2022-08-30T07:03:40.480Z,2.84
2022-08-30T07:07:22.063Z,1.70
2022-08-30T07:18:23.797Z,0.00
2022-08-30T07:29:25.580Z,2.52
2022-08-30T07:40:27.403Z,0.00
2022-08-30T07:51:29.104Z,0.00
2022-08-30T07:55:10.752Z,4.23
2022-08-30T07:58:52.466Z,3.42
2022-08-30T08:02:34.089Z,1.70
2022-08-30T08:06:15.724Z,3.53
2022-08-30T08:09:57.316Z,3.00
2022-08-30T08:13:53.220Z,2.71
2022-08-30T08:17:20.509Z,2.77
2022-08-30T08:21:02.134Z,2.91
2022-08-30T08:24:43.757Z,2.74
2022-08-30T08:28:25.395Z,2.73
2022-08-30T08:35:47.111Z,2.29
2022-08-30T08:39:28.723Z,2.84
2022-08-30T08:43:10.347Z,3.25
2022-08-30T08:46:51.924Z,2.17
2022-08-30T08:50:33.666Z,2.94
2022-08-30T08:54:15.253Z,2.48
2022-08-30T08:57:56.877Z,3.38
2022-08-30T09:01:38.588Z,4.40
2022-08-30T09:05:20.286Z,2.32
2022-08-30T09:09:01.831Z,2.90
2022-08-30T09:16:23.547Z,2.62
2022-08-30T09:23:45.228Z,3.38
2022-08-30T09:27:26.933Z,2.78
2022-08-30T09:31:12.015Z,1.90
2022-08-30T09:38:30.262Z,3.22
2022-08-30T09:42:12.002Z,3.78
2022-08-30T09:45:53.732Z,2.55
2022-08-30T09:49:35.367Z,3.28
2022-08-30T09:53:23.472Z,2.27
2022-08-30T09:56:58.668Z,3.13
2022-08-30T10:00:40.355Z,2.96
2022-08-30T10:04:22.075Z,3.28
2022-08-30T10:08:03.810Z,3.55
2022-08-30T10:11:45.556Z,3.22
2022-08-30T10:15:27.287Z,3.95
2022-08-30T10:19:08.926Z,3.63
2022-08-30T10:22:50.529Z,2.38
2022-08-30T10:26:32.176Z,2.94
2022-08-30T10:30:13.773Z,2.67
2022-08-30T10:33:55.333Z,2.28
2022-08-30T10:37:36.970Z,3.17
2022-08-30T10:41:18.655Z,3.72
2022-08-30T10:45:00.279Z,2.78
2022-08-30T10:48:44.327Z,4.18
2022-08-30T10:56:03.593Z,2.22
2022-08-30T10:59:45.204Z,2.09
2022-08-30T11:03:26.834Z,6.40
2022-08-30T11:07:10.085Z,3.03
2022-08-30T11:10:50.189Z,3.51
2022-08-30T11:14:31.752Z,3.03
2022-08-30T11:18:13.438Z,3.36
2022-08-30T11:21:55.021Z,2.77
2022-08-30T11:25:38.727Z,4.05
2022-08-30T11:29:18.389Z,3.59
2022-08-30T11:33:00.103Z,3.50
2022-08-30T11:36:45.866Z,3.13
2022-08-30T11:40:23.505Z,3.85
2022-08-30T11:44:05.184Z,3.85
2022-08-30T11:47:46.973Z,4.06
2022-08-30T11:51:28.788Z,5.54
2022-08-30T11:55:10.592Z,3.77
2022-08-30T11:58:52.296Z,4.13
2022-08-30T12:02:34.166Z,4.07
2022-08-30T12:06:15.786Z,5.45
2022-08-30T12:09:57.605Z,6.70
2022-08-30T12:13:39.397Z,5.98
2022-08-30T12:17:21.190Z,5.03
2022-08-30T12:21:03.088Z,6.37
2022-08-30T12:24:44.969Z,6.10
2022-08-30T12:28:26.842Z,3.99
2022-08-30T12:32:08.759Z,6.33
2022-08-30T12:35:50.472Z,4.39
2022-08-30T12:39:32.296Z,4.63
2022-08-30T12:43:13.970Z,4.45
2022-08-30T12:46:59.550Z,2.81
2022-08-30T12:50:37.529Z,5.02
2022-08-30T12:54:19.195Z,5.47
2022-08-30T12:58:01.227Z,3.08
2022-08-30T13:01:42.801Z,4.76
2022-08-30T13:05:24.400Z,3.66
2022-08-30T13:09:06.217Z,4.83
2022-08-30T13:12:48.113Z,8.00
2022-08-30T13:16:29.928Z,4.32
2022-08-30T13:20:11.718Z,4.62
2022-08-30T13:23:53.356Z,4.55
2022-08-30T13:27:37.009Z,4.15
2022-08-30T13:31:16.837Z,5.19
2022-08-30T13:34:58.517Z,4.10
2022-08-30T13:38:40.185Z,2.76
2022-08-30T13:42:37.261Z,6.67
2022-08-30T13:46:03.684Z,3.52
2022-08-30T13:49:45.790Z,5.68
2022-08-30T13:53:57.365Z,4.38
2022-08-30T13:57:09.314Z,3.91
2022-08-30T14:00:53.884Z,3.36
2022-08-30T14:04:32.762Z,2.83
2022-08-30T14:11:56.165Z,4.46
2022-08-30T14:15:38.982Z,5.49
2022-08-30T14:19:19.703Z,4.77
2022-08-30T14:23:01.380Z,3.25
2022-08-30T14:26:43.177Z,4.11
2022-08-30T14:30:24.958Z,5.61
2022-08-30T14:34:06.699Z,5.28
2022-08-30T14:37:48.404Z,3.38
2022-08-30T14:41:30.267Z,4.57
2022-08-30T14:45:12.017Z,4.46
2022-08-30T14:48:53.770Z,3.36
2022-08-30T14:52:35.524Z,3.95
2022-08-30T14:56:17.262Z,4.77
2022-08-30T14:59:59.127Z,5.46
2022-08-30T15:03:41.048Z,5.37
2022-08-30T15:07:22.855Z,4.33
2022-08-30T15:11:04.674Z,4.62
2022-08-30T15:14:46.283Z,3.25
2022-08-30T15:18:27.895Z,4.17
2022-08-30T15:22:09.558Z,3.14
2022-08-30T15:25:51.358Z,3.93
2022-08-30T15:29:33.200Z,3.80
2022-08-30T15:33:15.041Z,3.63
2022-08-30T15:36:56.685Z,2.74
2022-08-30T15:40:38.548Z,3.21
2022-08-30T15:44:20.155Z,3.72
2022-08-30T15:48:01.899Z,3.16
2022-08-30T15:51:46.014Z,2.98
2022-08-30T15:55:25.166Z,2.22
2022-08-30T15:59:07.022Z,4.57
2022-08-30T16:02:48.637Z,3.40
2022-08-30T16:06:30.315Z,4.17
2022-08-30T16:10:12.030Z,3.90
2022-08-30T16:13:53.642Z,2.32
2022-08-30T16:17:35.265Z,3.03
2022-08-30T16:21:16.889Z,2.90
2022-08-30T16:24:58.589Z,3.40
2022-08-30T16:36:00.434Z,0.00
2022-08-30T16:43:22.023Z,2.56
2022-08-30T16:54:23.753Z,0.00
2022-08-30T17:05:25.516Z,0.00
2022-08-30T17:16:28.011Z,0.00
2022-08-30T17:27:29.020Z,0.00
2022-08-30T17:38:30.782Z,0.00
2022-08-30T17:49:32.579Z,0.00
2022-08-30T18:00:34.339Z,0.00
2022-08-30T18:04:19.416Z,2.17
2022-08-30T18:15:17.730Z,0.00
2022-08-30T18:26:19.454Z,0.00
2022-08-30T18:37:21.195Z,0.00
2022-08-30T18:48:24.497Z,2.67
2022-08-30T18:52:06.230Z,2.39
2022-08-30T18:55:47.898Z,3.17
2022-08-30T19:06:49.762Z,0.00
2022-08-30T19:10:32.922Z,2.48
2022-08-30T19:14:13.452Z,3.09
2022-08-30T19:17:55.067Z,2.67
2022-08-30T19:21:36.760Z,5.01
2022-08-30T19:25:18.484Z,2.22
2022-08-30T19:29:00.176Z,2.59
2022-08-30T19:32:41.823Z,2.42
2022-08-30T19:36:23.421Z,2.09
2022-08-30T19:40:05.127Z,3.14
2022-08-30T19:43:46.713Z,3.39
2022-08-30T19:51:08.419Z,2.44
2022-08-30T19:54:50.097Z,2.95
2022-08-30T19:58:31.761Z,2.67
2022-08-30T20:02:13.633Z,3.11
2022-08-30T20:05:55.246Z,5.13
2022-08-30T20:09:37.024Z,3.86
2022-08-30T20:13:19.073Z,5.38
2022-08-30T20:17:02.347Z,2.67
2022-08-30T20:24:29.380Z,2.33
2022-08-30T20:28:02.101Z,0.00
2022-08-30T20:31:43.693Z,2.17
2022-08-30T20:35:25.303Z,2.09
2022-08-30T20:39:06.875Z,2.09
2022-08-30T20:46:33.402Z,2.09
2022-08-30T20:57:30.281Z,0.00
2022-08-30T21:01:11.982Z,2.70
2022-08-30T21:12:13.689Z,3.33
2022-08-30T21:15:55.319Z,2.84
2022-08-30T21:19:39.876Z,3.46
2022-08-30T21:23:18.559Z,2.78
2022-08-30T21:27:00.140Z,2.29
2022-08-30T21:30:41.936Z,5.10
2022-08-30T21:34:23.811Z,5.04
2022-08-30T21:38:05.530Z,3.34
2022-08-30T21:41:47.225Z,3.88
2022-08-30T21:45:28.809Z,2.86
2022-08-30T21:49:10.422Z,2.96
2022-08-30T21:52:52.096Z,3.65
2022-08-30T21:56:33.820Z,4.85
2022-08-30T22:00:15.486Z,5.21
2022-08-30T22:03:57.230Z,4.69
2022-08-30T22:07:38.854Z,2.57
2022-08-30T22:15:00.552Z,2.65
2022-08-30T22:22:22.225Z,2.90
2022-08-30T22:26:03.850Z,2.59
2022-08-30T22:37:05.604Z,0.00
2022-08-30T22:48:07.341Z,0.00
2022-08-30T22:59:09.081Z,0.00
2022-08-30T23:10:10.863Z,0.00
2022-08-30T23:21:12.587Z,0.00
2022-08-30T23:32:14.322Z,0.00
2022-08-30T23:43:16.120Z,0.00
2022-08-30T23:54:17.835Z,3.48
2022-08-30T23:57:59.431Z,2.39
